createdAt,value
2022-09-18T00:01:28.715Z,7.32
2022-09-18T00:04:15.008Z,9.02
2022-09-18T00:07:00.170Z,11.52
2022-09-18T00:09:46.001Z,10.68
2022-09-18T00:12:31.210Z,8.90
2022-09-18T00:15:16.779Z,9.68
2022-09-18T00:18:02.771Z,7.93
2022-09-18T00:20:48.258Z,7.63
2022-09-18T00:23:34.593Z,9.18
2022-09-18T00:26:19.721Z,8.40
2022-09-18T00:29:05.628Z,6.03
2022-09-18T00:31:51.421Z,11.07
2022-09-18T00:34:38.890Z,6.97
2022-09-18T00:37:24.210Z,9.43
2022-09-18T00:40:11.014Z,8.02
2022-09-18T00:42:56.488Z,6.03
2022-09-18T00:45:41.934Z,8.40
2022-09-18T00:48:40.758Z,6.65
2022-09-18T00:51:26.554Z,8.10
2022-09-18T00:54:21.883Z,8.75
2022-09-18T00:57:32.588Z,6.63
2022-09-18T01:00:20.894Z,6.30
2022-09-18T01:03:06.666Z,8.55
2022-09-18T01:06:10.742Z,7.15
2022-09-18T01:09:12.466Z,9.38
2022-09-18T01:12:10.540Z,10.68
2022-09-18T01:15:01.994Z,9.90
2022-09-18T01:18:10.547Z,8.02
2022-09-18T01:21:07.973Z,6.55
2022-09-18T01:24:21.055Z,6.15
2022-09-18T01:27:10.570Z,6.43
2022-09-18T01:30:04.188Z,6.53
2022-09-18T01:33:02.068Z,13.30
2022-09-18T01:35:52.871Z,10.38
2022-09-18T01:39:04.610Z,4.50
2022-09-18T01:41:52.037Z,4.70
2022-09-18T01:44:41.061Z,3.80
2022-09-18T01:47:34.056Z,4.47
2022-09-18T01:50:20.259Z,6.00
2022-09-18T01:53:21.026Z,5.65
2022-09-18T01:56:13.713Z,4.75
2022-09-18T01:59:04.559Z,5.43
2022-09-18T02:01:53.949Z,9.10
2022-09-18T02:04:49.578Z,5.25
2022-09-18T02:07:50.580Z,5.72
2022-09-18T02:10:43.166Z,6.00
2022-09-18T02:13:34.588Z,4.00
2022-09-18T02:16:32.355Z,5.78
2022-09-18T02:19:36.746Z,5.32
2022-09-18T02:22:24.553Z,3.30
2022-09-18T02:25:13.215Z,4.57
2022-09-18T02:27:59.092Z,4.57
2022-09-18T02:30:44.549Z,2.50
2022-09-18T02:33:32.450Z,5.35
2022-09-18T02:36:48.170Z,6.32
2022-09-18T02:40:06.728Z,4.05
2022-09-18T02:43:10.571Z,4.80
2022-09-18T02:46:34.219Z,4.38
2022-09-18T02:52:32.725Z,7.22
2022-09-18T02:58:22.959Z,9.70
2022-09-18T03:01:08.994Z,5.60
2022-09-18T03:03:54.779Z,4.80
2022-09-18T03:06:40.484Z,4.18
2022-09-18T03:09:26.454Z,4.35
2022-09-18T03:12:13.156Z,3.80
2022-09-18T03:14:58.369Z,4.47
2022-09-18T03:17:44.017Z,6.50
2022-09-18T03:20:29.447Z,4.32
2022-09-18T03:23:15.039Z,6.15
2022-09-18T03:26:00.494Z,6.68
2022-09-18T03:28:45.903Z,7.07
2022-09-18T03:31:31.656Z,3.33
2022-09-18T03:34:16.917Z,5.40
2022-09-18T03:37:02.404Z,7.50
2022-09-18T03:39:48.307Z,6.30
2022-09-18T03:42:34.010Z,3.80
2022-09-18T03:45:19.534Z,4.28
2022-09-18T03:48:05.183Z,7.35
2022-09-18T03:50:50.936Z,3.90
2022-09-18T03:53:36.522Z,5.07
2022-09-18T03:56:21.868Z,5.82
2022-09-18T03:59:07.450Z,4.93
2022-09-18T04:01:52.958Z,5.43
2022-09-18T04:04:38.423Z,5.43
2022-09-18T04:07:23.941Z,7.88
2022-09-18T04:10:09.551Z,4.03
2022-09-18T04:12:55.074Z,6.22
2022-09-18T04:15:40.550Z,7.43
2022-09-18T04:18:25.897Z,4.43
2022-09-18T04:21:11.411Z,6.97
2022-09-18T04:23:59.797Z,4.32
2022-09-18T04:26:45.019Z,5.00
2022-09-18T04:29:30.527Z,5.03
2022-09-18T04:32:16.065Z,9.13
2022-09-18T04:35:01.470Z,5.80
2022-09-18T04:37:46.922Z,4.22
2022-09-18T04:40:32.524Z,5.25
2022-09-18T04:43:19.185Z,5.03
2022-09-18T04:46:04.693Z,4.05
2022-09-18T04:48:50.406Z,4.70
2022-09-18T04:51:36.244Z,2.80
2022-09-18T04:54:21.657Z,8.75
2022-09-18T04:57:07.129Z,6.57
2022-09-18T04:59:53.130Z,6.10
2022-09-18T05:02:39.106Z,6.80
2022-09-18T05:05:24.943Z,3.40
2022-09-18T05:08:10.456Z,3.42
2022-09-18T05:10:55.922Z,6.35
2022-09-18T05:13:41.447Z,5.07
2022-09-18T05:16:27.418Z,8.02
2022-09-18T05:19:13.208Z,8.02
2022-09-18T05:21:58.875Z,5.05
2022-09-18T05:24:44.366Z,4.47
2022-09-18T05:27:29.925Z,4.50
2022-09-18T05:30:15.596Z,9.35
2022-09-18T05:33:11.146Z,4.68
2022-09-18T05:35:57.654Z,8.02
2022-09-18T05:38:42.923Z,7.82
2022-09-18T05:41:28.557Z,5.53
2022-09-18T05:44:14.068Z,5.30
2022-09-18T05:46:59.475Z,6.05
2022-09-18T05:49:44.574Z,5.72
2022-09-18T05:52:30.189Z,4.47
2022-09-18T05:55:15.600Z,10.05
2022-09-18T05:58:03.355Z,6.07
2022-09-18T06:00:51.176Z,5.28
2022-09-18T06:03:36.306Z,5.22
2022-09-18T06:06:21.847Z,5.53
2022-09-18T06:09:07.220Z,4.00
2022-09-18T06:11:52.636Z,6.97
2022-09-18T06:14:38.014Z,8.60
2022-09-18T06:17:23.570Z,4.75
2022-09-18T06:20:09.967Z,7.03
2022-09-18T06:23:00.545Z,5.07
2022-09-18T06:25:45.843Z,6.90
2022-09-18T06:28:32.451Z,7.63
2022-09-18T06:31:17.832Z,3.40
2022-09-18T06:34:03.327Z,7.00
2022-09-18T06:36:48.694Z,6.15
2022-09-18T06:39:34.316Z,4.45
2022-09-18T06:42:19.812Z,4.18
2022-09-18T06:45:06.060Z,4.00
2022-09-18T06:47:55.258Z,5.88
2022-09-18T06:50:40.514Z,4.20
2022-09-18T06:53:26.991Z,6.07
2022-09-18T06:56:12.612Z,5.40
2022-09-18T06:58:57.992Z,3.70
2022-09-18T07:01:43.377Z,4.47
2022-09-18T07:04:29.029Z,3.55
2022-09-18T07:07:14.590Z,9.15
2022-09-18T07:10:00.164Z,2.88
2022-09-18T07:12:48.727Z,10.70
2022-09-18T07:15:34.128Z,5.20
2022-09-18T07:18:19.710Z,7.38
2022-09-18T07:21:05.686Z,3.50
2022-09-18T07:23:51.023Z,3.25
2022-09-18T07:26:36.474Z,6.32
2022-09-18T07:29:22.026Z,4.43
2022-09-18T07:32:07.588Z,4.03
2022-09-18T07:34:53.121Z,5.22
2022-09-18T07:37:39.078Z,4.15
2022-09-18T07:40:24.554Z,6.10
2022-09-18T07:43:10.970Z,5.53
2022-09-18T07:45:56.541Z,3.10
2022-09-18T07:48:41.975Z,4.22
2022-09-18T07:51:27.710Z,4.60
2022-09-18T07:54:13.201Z,4.50
2022-09-18T07:56:58.666Z,5.45
2022-09-18T07:59:44.187Z,4.05
2022-09-18T08:02:29.858Z,2.50
2022-09-18T08:05:15.421Z,6.65
2022-09-18T08:08:06.101Z,4.10
2022-09-18T08:10:51.667Z,2.58
2022-09-18T08:13:37.216Z,7.18
2022-09-18T08:16:22.823Z,3.38
2022-09-18T08:19:08.529Z,2.92
2022-09-18T08:21:54.207Z,3.85
2022-09-18T08:24:39.686Z,8.05
2022-09-18T08:27:25.262Z,3.50
2022-09-18T08:30:13.822Z,7.10
2022-09-18T08:33:04.929Z,3.03
2022-09-18T08:35:50.225Z,2.38
2022-09-18T08:38:36.768Z,4.10
2022-09-18T08:41:31.250Z,2.30
2022-09-18T08:44:24.165Z,5.78
2022-09-18T08:47:17.406Z,4.03
2022-09-18T08:50:25.065Z,7.10
2022-09-18T08:53:34.261Z,4.10
2022-09-18T08:56:23.804Z,4.47
2022-09-18T08:59:18.054Z,5.03
2022-09-18T09:02:16.549Z,2.50
2022-09-18T09:05:06.893Z,3.47
2022-09-18T09:08:34.047Z,5.93
2022-09-18T09:11:28.064Z,6.03
2022-09-18T09:14:56.014Z,3.60
2022-09-18T09:18:05.513Z,2.90
2022-09-18T09:20:53.903Z,2.70
2022-09-18T09:24:21.284Z,2.83
2022-09-18T09:27:22.935Z,3.53
2022-09-18T09:30:20.213Z,2.15
2022-09-18T09:33:17.995Z,3.90
2022-09-18T09:36:10.834Z,2.20
2022-09-18T09:39:18.151Z,2.80
2022-09-18T09:42:21.764Z,2.00
2022-09-18T09:45:29.171Z,3.53
2022-09-18T09:48:27.864Z,2.05
2022-09-18T09:51:22.557Z,2.20
2022-09-18T09:54:11.758Z,4.78
2022-09-18T09:57:21.277Z,5.93
2022-09-18T10:00:14.627Z,2.85
2022-09-18T10:03:18.440Z,4.60
2022-09-18T10:06:35.641Z,1.83
2022-09-18T10:09:46.241Z,3.72
2022-09-18T10:13:03.355Z,2.60
2022-09-18T10:15:53.761Z,1.38
2022-09-18T10:18:45.796Z,3.67
2022-09-18T10:21:38.550Z,5.10
2022-09-18T10:24:42.280Z,4.38
2022-09-18T10:27:27.590Z,2.42
2022-09-18T10:30:14.301Z,2.88
2022-09-18T10:33:00.055Z,3.40
2022-09-18T10:35:46.093Z,2.25
2022-09-18T10:38:34.161Z,2.65
2022-09-18T10:41:34.847Z,2.60
2022-09-18T10:44:21.229Z,3.97
2022-09-18T10:47:10.729Z,1.42
2022-09-18T10:50:06.312Z,1.80
2022-09-18T10:52:54.151Z,2.08
2022-09-18T10:55:52.722Z,0.65
2022-09-18T10:58:41.347Z,2.05
2022-09-18T11:01:26.962Z,1.85
2022-09-18T11:04:16.986Z,1.48
2022-09-18T11:07:07.390Z,3.42
2022-09-18T11:09:53.011Z,1.38
2022-09-18T11:13:04.569Z,2.85
2022-09-18T11:16:03.095Z,3.33
2022-09-18T11:19:07.325Z,3.22
2022-09-18T11:21:56.137Z,2.30
2022-09-18T11:24:46.626Z,1.33
2022-09-18T11:27:48.919Z,2.22
2022-09-18T11:30:38.510Z,1.77
2022-09-18T11:33:31.057Z,0.73
2022-09-18T11:36:24.201Z,1.42
2022-09-18T11:39:15.792Z,0.70
2022-09-18T11:42:01.697Z,2.22
2022-09-18T11:44:47.763Z,1.80
2022-09-18T11:47:39.494Z,2.88
2022-09-18T11:50:30.318Z,1.27
2022-09-18T11:53:20.751Z,2.67
2022-09-18T11:56:08.685Z,2.50
2022-09-18T11:59:01.538Z,0.85
2022-09-18T12:01:51.461Z,2.40
2022-09-18T12:05:00.924Z,1.85
2022-09-18T12:08:08.560Z,2.42
2022-09-18T12:11:25.928Z,3.20
2022-09-18T12:14:26.624Z,1.58
2022-09-18T12:17:24.036Z,0.75
2022-09-18T12:20:31.375Z,0.38
2022-09-18T12:23:24.682Z,1.15
2022-09-18T12:26:39.434Z,1.40
2022-09-18T12:29:31.231Z,1.58
2022-09-18T12:32:19.330Z,0.80
2022-09-18T12:35:19.794Z,1.85
2022-09-18T12:38:07.893Z,4.95
2022-09-18T12:41:17.800Z,2.42
2022-09-18T12:44:28.542Z,0.77
2022-09-18T12:47:14.208Z,0.57
2022-09-18T12:50:19.978Z,1.70
2022-09-18T12:53:27.150Z,3.58
2022-09-18T12:56:34.067Z,1.08
2022-09-18T12:59:52.360Z,1.25
2022-09-18T13:02:40.721Z,3.90
2022-09-18T13:05:47.321Z,4.40
2022-09-18T13:09:00.163Z,2.13
2022-09-18T13:11:59.139Z,2.35
2022-09-18T13:14:56.275Z,5.78
2022-09-18T13:17:57.182Z,2.20
2022-09-18T13:20:45.426Z,1.80
2022-09-18T13:23:37.095Z,1.15
2022-09-18T13:26:25.328Z,1.88
2022-09-18T13:29:49.193Z,2.90
2022-09-18T13:32:37.600Z,4.65
2022-09-18T13:35:32.805Z,3.78
2022-09-18T13:38:22.246Z,2.35
2022-09-18T13:41:10.378Z,3.10
2022-09-18T13:43:58.586Z,0.90
2022-09-18T13:46:44.964Z,2.63
2022-09-18T13:49:33.092Z,3.75
2022-09-18T13:52:31.691Z,3.47
2022-09-18T13:55:20.104Z,3.40
2022-09-18T13:58:36.924Z,3.30
2022-09-18T14:01:41.308Z,1.63
2022-09-18T14:04:48.430Z,3.20
2022-09-18T14:07:33.732Z,1.92
2022-09-18T14:10:29.910Z,3.33
2022-09-18T14:13:18.250Z,1.27
2022-09-18T14:16:12.501Z,1.40
2022-09-18T14:19:06.201Z,2.70
2022-09-18T14:21:52.017Z,1.75
2022-09-18T14:24:49.509Z,1.27
2022-09-18T14:27:57.089Z,2.85
2022-09-18T14:30:42.525Z,1.80
2022-09-18T14:33:31.808Z,2.30
2022-09-18T14:36:17.148Z,4.75
2022-09-18T14:39:02.613Z,7.88
2022-09-18T14:41:48.607Z,4.13
2022-09-18T14:44:34.358Z,4.00
2022-09-18T14:47:26.133Z,0.98
2022-09-18T14:50:37.314Z,1.40
2022-09-18T14:53:25.936Z,2.13
2022-09-18T14:56:18.495Z,2.03
2022-09-18T14:59:07.270Z,2.10
2022-09-18T15:01:52.732Z,0.98
2022-09-18T15:04:38.669Z,2.22
2022-09-18T15:07:24.592Z,1.58
2022-09-18T15:10:10.518Z,3.97
2022-09-18T15:12:58.130Z,1.65
2022-09-18T15:15:45.529Z,1.63
2022-09-18T15:18:40.735Z,1.10
2022-09-18T15:21:33.528Z,2.28
2022-09-18T15:27:05.688Z,0.75
2022-09-18T15:30:05.016Z,1.73
2022-09-18T15:32:53.835Z,2.20
2022-09-18T15:35:39.611Z,4.72
2022-09-18T15:38:38.868Z,1.33
2022-09-18T15:41:35.901Z,1.02
2022-09-18T15:44:39.293Z,3.63
2022-09-18T15:47:34.848Z,4.47
2022-09-18T15:50:19.886Z,0.50
2022-09-18T15:53:27.681Z,4.60
2022-09-18T15:56:21.183Z,1.40
2022-09-18T15:59:34.778Z,1.13
2022-09-18T16:02:29.174Z,2.92
2022-09-18T16:05:18.123Z,1.25
2022-09-18T16:08:07.923Z,3.45
2022-09-18T16:10:53.981Z,3.55
2022-09-18T16:13:39.604Z,4.75
2022-09-18T16:16:25.778Z,3.03
2022-09-18T16:19:13.169Z,2.45
2022-09-18T16:22:08.021Z,1.67
2022-09-18T16:24:56.523Z,4.00
2022-09-18T16:27:46.832Z,2.28
2022-09-18T16:30:33.614Z,2.15
2022-09-18T16:33:21.947Z,3.33
2022-09-18T16:36:15.170Z,3.33
2022-09-18T16:41:48.649Z,1.50
2022-09-18T16:44:33.917Z,4.35
2022-09-18T16:47:19.628Z,7.97
2022-09-18T16:50:05.776Z,1.60
2022-09-18T16:52:53.254Z,1.88
2022-09-18T16:55:42.627Z,3.00
2022-09-18T16:58:29.023Z,1.85
2022-09-18T17:01:15.702Z,4.55
2022-09-18T17:04:01.387Z,4.30
2022-09-18T17:06:46.732Z,2.28
2022-09-18T17:09:32.904Z,2.80
2022-09-18T17:12:18.690Z,3.45
2022-09-18T17:15:05.562Z,1.85
2022-09-18T17:17:52.238Z,1.80
2022-09-18T17:20:37.986Z,2.90
2022-09-18T17:23:23.428Z,3.40
2022-09-18T17:26:11.822Z,3.03
2022-09-18T17:29:00.034Z,4.65
2022-09-18T17:31:46.002Z,2.20
2022-09-18T17:34:32.297Z,3.08
2022-09-18T17:37:17.581Z,3.22
2022-09-18T17:40:03.274Z,1.50
2022-09-18T17:42:48.892Z,4.25
2022-09-18T17:45:34.569Z,3.08
2022-09-18T17:48:20.186Z,5.30
2022-09-18T17:51:16.702Z,10.40
2022-09-18T17:54:04.780Z,3.97
2022-09-18T17:56:50.732Z,4.13
2022-09-18T17:59:40.917Z,1.55
2022-09-18T18:02:26.440Z,3.40
2022-09-18T18:05:12.407Z,3.47
2022-09-18T18:07:58.173Z,3.55
2022-09-18T18:10:44.062Z,2.10
2022-09-18T18:13:29.901Z,3.25
2022-09-18T18:16:23.836Z,4.72
2022-09-18T18:19:12.710Z,3.03
2022-09-18T18:21:58.061Z,4.82
2022-09-18T18:24:43.705Z,3.67
2022-09-18T18:27:29.223Z,4.18
2022-09-18T18:30:16.324Z,3.42
2022-09-18T18:33:02.814Z,3.25
2022-09-18T18:35:47.999Z,2.33
2022-09-18T18:38:33.686Z,1.85
2022-09-18T18:41:20.410Z,2.95
2022-09-18T18:44:07.089Z,3.45
2022-09-18T18:46:55.616Z,5.32
2022-09-18T18:49:41.063Z,3.00
2022-09-18T18:52:26.947Z,2.97
2022-09-18T18:55:12.757Z,3.40
2022-09-18T18:57:58.269Z,2.90
2022-09-18T19:00:44.083Z,3.50
2022-09-18T19:03:29.731Z,4.82
2022-09-18T19:06:15.854Z,3.42
2022-09-18T19:09:07.194Z,4.30
2022-09-18T19:11:59.299Z,4.85
2022-09-18T19:17:33.451Z,3.88
2022-09-18T19:20:20.223Z,3.70
2022-09-18T19:23:13.182Z,6.25
2022-09-18T19:26:00.281Z,4.25
2022-09-18T19:28:50.157Z,3.47
2022-09-18T19:31:39.435Z,5.65
2022-09-18T19:34:25.251Z,8.15
2022-09-18T19:37:12.502Z,5.50
2022-09-18T19:39:59.798Z,7.20
2022-09-18T19:43:00.077Z,4.78
2022-09-18T19:45:48.489Z,4.07
2022-09-18T19:48:35.103Z,5.25
2022-09-18T19:51:21.340Z,6.63
2022-09-18T19:54:10.056Z,5.15
2022-09-18T19:56:57.131Z,5.97
2022-09-18T19:59:51.468Z,6.93
2022-09-18T20:02:37.281Z,6.65
2022-09-18T20:05:22.818Z,5.57
2022-09-18T20:08:09.948Z,7.30
2022-09-18T20:10:55.924Z,7.20
2022-09-18T20:13:41.422Z,8.68
2022-09-18T20:16:27.451Z,6.65
2022-09-18T20:19:13.409Z,5.18
2022-09-18T20:22:02.947Z,9.02
2022-09-18T20:24:48.691Z,8.02
2022-09-18T20:27:39.984Z,5.80
2022-09-18T20:30:26.236Z,5.88
2022-09-18T20:33:12.835Z,7.18
2022-09-18T20:35:59.093Z,7.20
2022-09-18T20:38:45.596Z,8.32
2022-09-18T20:41:31.325Z,7.40
2022-09-18T20:44:17.607Z,4.05
2022-09-18T20:47:03.848Z,8.25
2022-09-18T20:49:50.601Z,5.90
2022-09-18T20:52:39.235Z,5.10
2022-09-18T20:55:24.912Z,6.38
2022-09-18T20:58:11.357Z,6.57
2022-09-18T21:00:57.113Z,7.47
2022-09-18T21:03:44.603Z,4.30
2022-09-18T21:06:33.309Z,5.55
2022-09-18T21:09:18.906Z,8.75
2022-09-18T21:12:04.538Z,5.65
2022-09-18T21:14:49.792Z,5.25
2022-09-18T21:17:37.498Z,5.65
2022-09-18T21:20:22.664Z,8.15
2022-09-18T21:23:28.090Z,8.05
2022-09-18T21:26:17.510Z,6.55
2022-09-18T21:29:11.986Z,8.05
2022-09-18T21:31:59.292Z,7.30
2022-09-18T21:34:46.166Z,6.05
2022-09-18T21:37:32.698Z,5.80
2022-09-18T21:40:18.433Z,4.18
2022-09-18T21:43:04.821Z,6.43
2022-09-18T21:45:50.323Z,7.82
2022-09-18T21:48:35.990Z,7.03
2022-09-18T21:51:21.994Z,4.88
2022-09-18T21:54:15.250Z,6.85
2022-09-18T21:57:01.389Z,7.57
2022-09-18T21:59:48.622Z,7.68
2022-09-18T22:02:33.797Z,5.82
2022-09-18T22:05:19.392Z,8.63
2022-09-18T22:08:04.985Z,7.53
2022-09-18T22:10:50.540Z,8.38
2022-09-18T22:13:36.145Z,7.75
2022-09-18T22:16:31.378Z,8.25
2022-09-18T22:19:17.798Z,9.07
2022-09-18T22:22:03.174Z,11.23
2022-09-18T22:24:48.801Z,7.55
2022-09-18T22:27:33.900Z,9.13
2022-09-18T22:30:20.348Z,10.25
2022-09-18T22:33:06.179Z,8.55
2022-09-18T22:35:51.493Z,6.93
2022-09-18T22:38:36.975Z,10.50
2022-09-18T22:41:22.982Z,8.68
2022-09-18T22:44:09.151Z,9.60
2022-09-18T22:46:54.957Z,9.90
2022-09-18T22:49:40.583Z,12.63
2022-09-18T22:52:26.186Z,10.55
2022-09-18T22:55:11.368Z,6.30
2022-09-18T22:57:56.994Z,4.38
2022-09-18T23:00:42.349Z,4.75
2022-09-18T23:03:27.916Z,10.75
2022-09-18T23:06:14.450Z,9.38
2022-09-18T23:09:01.006Z,9.20
2022-09-18T23:11:48.148Z,10.63
2022-09-18T23:14:33.713Z,12.27
2022-09-18T23:17:18.980Z,11.50
2022-09-18T23:20:04.724Z,11.27
2022-09-18T23:22:50.477Z,10.82
2022-09-18T23:25:36.535Z,9.32
2022-09-18T23:28:22.384Z,10.35
2022-09-18T23:31:20.156Z,8.95
2022-09-18T23:34:14.812Z,10.93
2022-09-18T23:37:09.687Z,9.18
2022-09-18T23:39:59.440Z,8.88
2022-09-18T23:42:47.721Z,10.43
2022-09-18T23:45:34.699Z,8.30
2022-09-18T23:48:20.081Z,8.80
2022-09-18T23:51:11.163Z,8.57
2022-09-18T23:53:59.911Z,10.15
2022-09-18T23:56:46.298Z,15.35
2022-09-18T23:59:31.596Z,11.82
